createdAt,value
2023-03-25T00:00:19.402Z,63.79
2023-03-25T00:03:09.456Z,63.85
2023-03-25T00:05:41.308Z,63.78
2023-03-25T00:08:10.009Z,63.83
2023-03-25T00:10:38.069Z,63.86
2023-03-25T00:13:08.374Z,63.91
2023-03-25T00:15:36.584Z,64.03
2023-03-25T00:18:04.912Z,64.04
2023-03-25T00:20:33.531Z,64.17
2023-03-25T00:23:01.633Z,64.23
2023-03-25T00:25:30.195Z,64.24
2023-03-25T00:27:58.771Z,64.40
2023-03-25T00:30:26.923Z,64.42
2023-03-25T00:32:55.213Z,64.46
2023-03-25T00:35:44.980Z,64.46
2023-03-25T00:38:13.031Z,64.49
2023-03-25T00:40:41.149Z,64.46
2023-03-25T00:43:11.259Z,64.50
2023-03-25T00:45:39.281Z,64.53
2023-03-25T00:48:07.541Z,64.74
2023-03-25T00:50:35.502Z,64.69
2023-03-25T00:53:03.768Z,64.87
2023-03-25T00:55:31.834Z,64.71
2023-03-25T00:57:59.742Z,64.79
2023-03-25T01:00:27.946Z,64.87
2023-03-25T01:02:56.333Z,64.91
2023-03-25T01:05:25.103Z,64.94
2023-03-25T01:07:53.217Z,65.16
2023-03-25T01:10:22.352Z,65.26
2023-03-25T01:12:50.844Z,65.40
2023-03-25T01:15:19.981Z,65.41
2023-03-25T01:17:48.649Z,65.29
2023-03-25T01:20:17.062Z,65.35
2023-03-25T01:22:45.328Z,65.22
2023-03-25T01:25:13.899Z,65.23
2023-03-25T01:27:42.062Z,65.12
2023-03-25T01:30:11.191Z,64.82
2023-03-25T01:32:39.692Z,64.70
2023-03-25T01:35:08.756Z,64.46
2023-03-25T01:37:38.988Z,63.73
2023-03-25T01:40:10.120Z,62.67
2023-03-25T01:42:38.236Z,61.85
2023-03-25T01:45:21.594Z,61.27
2023-03-25T01:47:59.038Z,60.47
2023-03-25T01:50:30.366Z,60.20
2023-03-25T01:53:02.064Z,59.87
2023-03-25T01:55:33.436Z,59.51
2023-03-25T01:58:07.617Z,59.26
2023-03-25T02:00:37.760Z,58.84
2023-03-25T02:03:09.470Z,58.70
2023-03-25T02:05:56.826Z,59.08
2023-03-25T02:08:26.405Z,59.16
2023-03-25T02:10:55.808Z,59.46
2023-03-25T02:13:24.141Z,59.18
2023-03-25T02:16:11.375Z,58.78
2023-03-25T02:18:56.920Z,58.38
2023-03-25T02:21:31.012Z,58.39
2023-03-25T02:24:05.763Z,58.49
2023-03-25T02:27:14.366Z,58.58
2023-03-25T02:29:54.192Z,58.55
2023-03-25T02:32:38.712Z,58.58
2023-03-25T02:35:50.145Z,58.56
2023-03-25T02:38:24.807Z,58.63
2023-03-25T02:41:26.146Z,58.64
2023-03-25T02:43:59.524Z,58.62
2023-03-25T02:46:30.066Z,58.66
2023-03-25T02:49:12.895Z,58.88
2023-03-25T02:51:53.362Z,58.57
2023-03-25T02:54:24.399Z,58.50
2023-03-25T02:56:57.803Z,58.45
2023-03-25T02:59:30.239Z,58.34
2023-03-25T03:02:03.930Z,58.20
2023-03-25T03:04:32.448Z,58.04
2023-03-25T03:07:01.328Z,58.05
2023-03-25T03:09:35.973Z,58.14
2023-03-25T03:12:15.745Z,58.15
2023-03-25T03:14:49.895Z,58.52
2023-03-25T03:17:39.593Z,58.56
2023-03-25T03:20:26.978Z,58.37
2023-03-25T03:23:07.558Z,58.48
2023-03-25T03:25:51.249Z,58.65
2023-03-25T03:28:25.525Z,58.51
2023-03-25T03:30:58.922Z,58.52
2023-03-25T03:33:33.836Z,58.51
2023-03-25T03:36:06.731Z,58.48
2023-03-25T03:38:49.278Z,58.42
2023-03-25T03:41:21.823Z,58.42
2023-03-25T03:43:59.709Z,58.40
2023-03-25T03:46:33.939Z,58.60
2023-03-25T03:49:09.973Z,58.49
2023-03-25T03:51:57.291Z,58.61
2023-03-25T03:54:32.470Z,58.55
2023-03-25T03:57:21.213Z,58.57
2023-03-25T04:00:06.684Z,58.60
2023-03-25T04:02:47.994Z,58.68
2023-03-25T04:05:20.205Z,58.62
2023-03-25T04:08:03.028Z,58.63
2023-03-25T04:10:35.061Z,58.73
2023-03-25T04:13:08.549Z,58.66
2023-03-25T04:15:37.653Z,58.74
2023-03-25T04:18:06.169Z,58.80
2023-03-25T04:20:36.672Z,58.61
2023-03-25T04:23:05.209Z,58.54
2023-03-25T04:25:34.035Z,58.52
2023-03-25T04:28:02.162Z,58.67
2023-03-25T04:30:31.195Z,58.69
2023-03-25T04:33:00.942Z,58.60
2023-03-25T04:35:29.560Z,58.66
2023-03-25T04:37:58.383Z,58.66
2023-03-25T04:40:26.622Z,58.74
2023-03-25T04:42:56.927Z,58.84
2023-03-25T04:45:26.253Z,58.94
2023-03-25T04:47:54.843Z,59.01
2023-03-25T04:50:27.448Z,59.02
2023-03-25T04:53:00.644Z,59.05
2023-03-25T04:55:30.246Z,59.27
2023-03-25T04:57:58.792Z,59.28
2023-03-25T05:00:27.287Z,59.27
2023-03-25T05:02:56.664Z,59.42
2023-03-25T05:05:26.045Z,59.38
2023-03-25T05:07:55.532Z,59.34
2023-03-25T05:10:25.614Z,59.43
2023-03-25T05:13:06.717Z,59.28
2023-03-25T05:15:39.725Z,59.48
2023-03-25T05:18:14.393Z,59.70
2023-03-25T05:20:45.200Z,59.78
2023-03-25T05:23:18.349Z,59.97
2023-03-25T05:25:51.958Z,59.87
2023-03-25T05:28:20.308Z,60.04
2023-03-25T05:30:48.871Z,60.12
2023-03-25T05:33:19.149Z,60.12
2023-03-25T05:35:47.651Z,60.02
2023-03-25T05:38:18.895Z,59.92
2023-03-25T05:40:48.984Z,59.91
2023-03-25T05:43:22.838Z,60.06
2023-03-25T05:45:51.221Z,59.97
2023-03-25T05:48:19.563Z,59.90
2023-03-25T05:50:47.594Z,59.87
2023-03-25T05:53:16.196Z,59.75
2023-03-25T05:55:44.366Z,59.69
2023-03-25T05:58:12.622Z,59.70
2023-03-25T06:00:41.337Z,59.34
2023-03-25T06:03:11.147Z,59.27
2023-03-25T06:05:39.850Z,59.32
2023-03-25T06:08:08.569Z,59.11
2023-03-25T06:10:36.946Z,58.99
2023-03-25T06:13:05.005Z,58.71
2023-03-25T06:15:39.636Z,58.71
2023-03-25T06:18:11.095Z,58.47
2023-03-25T06:20:39.046Z,58.60
2023-03-25T06:23:08.124Z,58.47
2023-03-25T06:25:36.190Z,58.33
2023-03-25T06:28:05.005Z,57.93
2023-03-25T06:30:52.915Z,57.92
2023-03-25T06:33:42.166Z,57.79
2023-03-25T06:36:11.595Z,57.75
2023-03-25T06:38:40.405Z,57.65
2023-03-25T06:41:14.036Z,57.34
2023-03-25T06:43:45.005Z,57.42
2023-03-25T06:46:31.980Z,57.03
2023-03-25T06:49:03.071Z,56.70
2023-03-25T06:51:31.372Z,56.52
2023-03-25T06:53:59.414Z,56.18
2023-03-25T06:56:27.754Z,55.95
2023-03-25T06:58:55.908Z,55.60
2023-03-25T07:01:24.160Z,55.19
2023-03-25T07:04:12.511Z,55.00
2023-03-25T07:06:41.237Z,54.31
2023-03-25T07:09:09.218Z,54.09
2023-03-25T07:11:37.500Z,53.36
2023-03-25T07:14:05.464Z,53.41
2023-03-25T07:16:33.917Z,52.91
2023-03-25T07:19:01.911Z,52.51
2023-03-25T07:21:29.849Z,52.67
2023-03-25T07:23:57.929Z,51.89
2023-03-25T07:26:25.968Z,51.97
2023-03-25T07:28:54.026Z,51.46
2023-03-25T07:31:22.092Z,51.63
2023-03-25T07:33:51.634Z,50.38
2023-03-25T07:36:22.047Z,49.26
2023-03-25T07:38:50.080Z,48.93
2023-03-25T07:41:18.117Z,47.98
2023-03-25T07:44:06.349Z,47.21
2023-03-25T07:46:34.448Z,47.00
2023-03-25T07:49:02.970Z,45.99
2023-03-25T07:51:33.311Z,45.84
2023-03-25T07:54:05.079Z,46.04
2023-03-25T07:56:34.499Z,46.25
2023-03-25T07:59:03.266Z,46.25
2023-03-25T08:01:32.217Z,45.83
2023-03-25T08:04:00.596Z,45.66
2023-03-25T08:06:28.719Z,45.78
2023-03-25T08:08:56.952Z,45.84
2023-03-25T08:11:25.240Z,45.77
2023-03-25T08:13:53.496Z,45.63
2023-03-25T08:16:26.566Z,44.84
2023-03-25T08:18:54.777Z,44.50
2023-03-25T08:21:25.313Z,43.24
2023-03-25T08:23:58.921Z,42.47
2023-03-25T08:26:27.461Z,41.48
2023-03-25T08:28:58.124Z,39.38
2023-03-25T08:31:31.068Z,38.31
2023-03-25T08:34:01.114Z,38.64
2023-03-25T08:36:29.285Z,38.84
2023-03-25T08:38:57.643Z,37.86
2023-03-25T08:41:26.229Z,37.32
2023-03-25T08:43:54.371Z,37.32
2023-03-25T08:46:23.386Z,37.74
2023-03-25T08:48:51.508Z,38.11
2023-03-25T08:51:19.481Z,38.53
2023-03-25T08:53:47.690Z,39.15
2023-03-25T08:56:15.799Z,39.51
2023-03-25T08:58:43.769Z,39.94
2023-03-25T09:01:12.289Z,39.69
2023-03-25T09:03:41.176Z,38.82
2023-03-25T09:06:09.637Z,38.41
2023-03-25T09:08:37.810Z,38.24
2023-03-25T09:11:06.155Z,37.46
2023-03-25T09:13:34.404Z,37.22
2023-03-25T09:16:02.439Z,36.37
2023-03-25T09:18:32.220Z,36.53
2023-03-25T09:21:00.526Z,36.04
2023-03-25T09:23:29.238Z,35.73
2023-03-25T09:26:02.313Z,34.66
2023-03-25T09:28:30.389Z,34.12
2023-03-25T09:30:58.708Z,34.14
2023-03-25T09:33:27.738Z,34.24
2023-03-25T09:35:56.259Z,33.54
2023-03-25T09:38:24.461Z,32.92
2023-03-25T09:40:52.458Z,32.86
2023-03-25T09:43:28.141Z,31.74
2023-03-25T09:45:58.529Z,31.32
2023-03-25T09:48:38.424Z,31.56
2023-03-25T09:51:14.435Z,32.32
2023-03-25T09:54:08.921Z,32.65
2023-03-25T09:56:42.320Z,33.39
2023-03-25T09:59:16.839Z,34.09
2023-03-25T10:01:50.900Z,34.88
2023-03-25T10:04:40.687Z,35.56
2023-03-25T10:07:17.831Z,36.50
2023-03-25T10:10:00.456Z,37.50
2023-03-25T10:12:37.708Z,39.16
2023-03-25T10:15:35.358Z,39.91
2023-03-25T10:18:20.490Z,40.49
2023-03-25T10:21:05.932Z,41.24
2023-03-25T10:23:46.810Z,41.88
2023-03-25T10:26:33.194Z,42.94
2023-03-25T10:29:06.512Z,44.81
2023-03-25T10:31:43.523Z,46.28
2023-03-25T10:34:20.605Z,47.44
2023-03-25T10:37:06.874Z,48.40
2023-03-25T10:39:38.484Z,48.80
2023-03-25T10:42:35.168Z,49.30
2023-03-25T10:45:05.065Z,49.38
2023-03-25T10:47:38.357Z,48.40
2023-03-25T10:50:14.550Z,47.47
2023-03-25T10:52:43.579Z,45.85
2023-03-25T10:55:29.284Z,44.88
2023-03-25T10:57:57.815Z,43.59
2023-03-25T11:00:28.049Z,42.75
2023-03-25T11:02:57.308Z,41.11
2023-03-25T11:05:29.710Z,39.59
2023-03-25T11:08:18.049Z,38.59
2023-03-25T11:10:57.923Z,37.64
2023-03-25T11:13:31.407Z,36.98
2023-03-25T11:16:03.597Z,35.88
2023-03-25T11:18:40.954Z,34.62
2023-03-25T11:21:13.219Z,34.02
2023-03-25T11:23:48.226Z,33.21
2023-03-25T11:26:21.570Z,33.12
2023-03-25T11:29:13.157Z,33.64
2023-03-25T11:31:42.488Z,34.40
2023-03-25T11:34:13.911Z,35.66
2023-03-25T11:36:55.944Z,36.27
2023-03-25T11:39:23.910Z,36.20
2023-03-25T11:41:52.622Z,36.30
2023-03-25T11:44:30.596Z,35.60
2023-03-25T11:47:10.823Z,35.85
2023-03-25T11:49:41.612Z,36.40
2023-03-25T11:52:17.946Z,37.17
2023-03-25T11:54:46.662Z,37.71
2023-03-25T11:57:21.194Z,38.17
2023-03-25T11:59:57.868Z,38.87
2023-03-25T12:02:31.326Z,38.86
2023-03-25T12:05:04.267Z,39.44
2023-03-25T12:07:43.142Z,39.95
2023-03-25T12:10:19.031Z,40.31
2023-03-25T12:12:56.846Z,40.51
2023-03-25T12:15:40.816Z,41.25
2023-03-25T12:18:25.240Z,42.91
2023-03-25T12:21:00.034Z,43.99
2023-03-25T12:23:54.664Z,44.21
2023-03-25T12:26:51.545Z,44.61
2023-03-25T12:29:42.272Z,45.69
2023-03-25T12:32:22.679Z,46.14
2023-03-25T12:34:57.810Z,45.67
2023-03-25T12:38:07.287Z,46.28
2023-03-25T12:40:56.782Z,47.96
2023-03-25T12:44:08.029Z,48.66
2023-03-25T12:47:09.095Z,48.69
2023-03-25T12:50:00.800Z,48.82
2023-03-25T12:53:18.701Z,48.22
2023-03-25T12:56:27.683Z,48.00
2023-03-25T12:59:32.020Z,47.28
2023-03-25T13:02:15.592Z,45.04
2023-03-25T13:05:05.096Z,42.89
2023-03-25T13:07:42.905Z,41.83
2023-03-25T13:10:37.433Z,40.92
2023-03-25T13:13:27.145Z,39.33
2023-03-25T13:16:17.986Z,38.28
2023-03-25T13:19:02.386Z,37.97
2023-03-25T13:21:39.485Z,38.16
2023-03-25T13:24:23.986Z,38.05
2023-03-25T13:26:55.856Z,36.72
2023-03-25T13:29:30.141Z,36.27
2023-03-25T13:32:03.316Z,35.52
2023-03-25T13:34:43.718Z,35.70
2023-03-25T13:37:24.742Z,35.82
2023-03-25T13:40:14.849Z,36.36
2023-03-25T13:42:56.123Z,36.83
2023-03-25T13:45:28.078Z,37.34
2023-03-25T13:48:03.584Z,37.77
2023-03-25T13:50:32.876Z,38.34
2023-03-25T13:53:08.123Z,38.60
2023-03-25T13:55:45.310Z,38.58
2023-03-25T13:58:18.887Z,38.93
2023-03-25T14:01:18.753Z,39.08
2023-03-25T14:04:16.702Z,39.22
2023-03-25T14:07:21.389Z,39.22
2023-03-25T14:10:11.599Z,39.29
2023-03-25T14:13:07.062Z,38.89
2023-03-25T14:15:40.005Z,38.32
2023-03-25T14:18:19.090Z,37.82
2023-03-25T14:20:50.877Z,37.87
2023-03-25T14:23:23.287Z,37.59
2023-03-25T14:26:00.813Z,37.49
2023-03-25T14:28:47.932Z,37.73
2023-03-25T14:31:22.482Z,38.06
2023-03-25T14:34:00.338Z,38.06
2023-03-25T14:36:55.923Z,38.30
2023-03-25T14:39:30.507Z,38.16
2023-03-25T14:42:08.802Z,38.52
2023-03-25T14:45:01.958Z,38.76
2023-03-25T14:47:34.785Z,38.89
2023-03-25T14:50:27.024Z,38.97
2023-03-25T14:53:00.905Z,39.16
2023-03-25T14:55:30.939Z,39.32
2023-03-25T14:58:17.430Z,39.32
2023-03-25T15:01:01.570Z,39.21
2023-03-25T15:03:44.343Z,39.63
2023-03-25T15:06:19.352Z,39.67
2023-03-25T15:08:54.986Z,39.50
2023-03-25T15:11:38.360Z,39.53
2023-03-25T15:14:21.755Z,40.19
2023-03-25T15:16:50.001Z,41.67
2023-03-25T15:19:21.640Z,42.79
2023-03-25T15:22:00.553Z,43.65
2023-03-25T15:24:40.760Z,44.41
2023-03-25T15:27:41.684Z,45.15
2023-03-25T15:30:33.766Z,45.78
2023-03-25T15:33:29.727Z,46.38
2023-03-25T15:36:28.696Z,46.67
2023-03-25T15:39:29.651Z,46.79
2023-03-25T15:42:36.547Z,46.92
2023-03-25T15:45:17.030Z,46.69
2023-03-25T15:48:23.856Z,46.49
2023-03-25T15:51:19.357Z,46.47
2023-03-25T15:54:12.653Z,46.51
2023-03-25T15:56:42.877Z,46.59
2023-03-25T15:59:41.696Z,46.50
2023-03-25T16:02:36.242Z,46.58
2023-03-25T16:05:08.095Z,46.41
2023-03-25T16:07:37.257Z,46.44
2023-03-25T16:10:15.006Z,46.23
2023-03-25T16:12:46.381Z,46.09
2023-03-25T16:15:24.805Z,46.19
2023-03-25T16:17:54.463Z,46.26
2023-03-25T16:20:26.750Z,46.48
2023-03-25T16:22:58.417Z,46.50
2023-03-25T16:25:41.801Z,46.68
2023-03-25T16:28:19.552Z,46.59
2023-03-25T16:30:53.974Z,46.64
2023-03-25T16:33:29.591Z,46.63
2023-03-25T16:36:24.294Z,46.85
2023-03-25T16:38:53.661Z,47.03
2023-03-25T16:41:22.096Z,46.90
2023-03-25T16:43:50.258Z,47.11
2023-03-25T16:46:21.431Z,47.12
2023-03-25T16:48:56.017Z,47.17
2023-03-25T16:51:35.424Z,47.35
2023-03-25T16:54:09.904Z,47.46
2023-03-25T16:56:39.421Z,47.59
2023-03-25T16:59:18.425Z,47.67
2023-03-25T17:01:53.993Z,47.85
2023-03-25T17:04:39.416Z,48.07
2023-03-25T17:07:29.889Z,48.52
2023-03-25T17:09:59.505Z,48.92
2023-03-25T17:12:29.893Z,49.03
2023-03-25T17:15:09.351Z,49.13
2023-03-25T17:17:53.682Z,49.53
2023-03-25T17:20:32.882Z,49.90
2023-03-25T17:23:10.823Z,50.03
2023-03-25T17:25:52.926Z,50.25
2023-03-25T17:28:30.473Z,50.48
2023-03-25T17:30:59.396Z,50.59
2023-03-25T17:33:39.870Z,50.57
2023-03-25T17:36:12.927Z,50.60
2023-03-25T17:38:47.849Z,50.68
2023-03-25T17:41:18.599Z,50.74
2023-03-25T17:43:54.308Z,50.68
2023-03-25T17:46:25.051Z,50.74
2023-03-25T17:48:55.387Z,50.76
2023-03-25T17:51:26.691Z,50.82
2023-03-25T17:53:56.234Z,50.84
2023-03-25T17:56:27.971Z,50.83
2023-03-25T17:59:17.302Z,50.85
2023-03-25T18:01:47.584Z,50.86
2023-03-25T18:04:17.331Z,51.03
2023-03-25T18:06:45.434Z,51.03
2023-03-25T18:09:18.055Z,51.00
2023-03-25T18:11:48.206Z,51.13
2023-03-25T18:14:16.487Z,51.07
2023-03-25T18:16:45.198Z,51.28
2023-03-25T18:19:22.563Z,51.28
2023-03-25T18:21:51.389Z,51.37
2023-03-25T18:24:19.435Z,51.52
2023-03-25T18:26:48.428Z,51.56
2023-03-25T18:29:24.738Z,51.53
2023-03-25T18:31:53.376Z,51.58
2023-03-25T18:34:24.746Z,51.52
2023-03-25T18:36:54.162Z,51.41
2023-03-25T18:39:25.080Z,51.44
2023-03-25T18:41:53.114Z,51.49
2023-03-25T18:44:21.462Z,51.47
2023-03-25T18:46:49.592Z,51.46
2023-03-25T18:49:20.090Z,51.58
2023-03-25T18:51:48.766Z,51.54
2023-03-25T18:54:17.158Z,51.38
2023-03-25T18:56:45.678Z,51.40
2023-03-25T18:59:18.850Z,51.47
2023-03-25T19:01:47.678Z,51.40
2023-03-25T19:04:16.568Z,51.33
2023-03-25T19:06:44.712Z,51.48
2023-03-25T19:09:18.924Z,51.33
2023-03-25T19:11:48.955Z,51.64
2023-03-25T19:14:17.045Z,51.66
2023-03-25T19:16:57.028Z,51.75
2023-03-25T19:19:29.637Z,51.87
2023-03-25T19:21:57.725Z,51.92
2023-03-25T19:24:25.887Z,51.86
2023-03-25T19:26:53.936Z,51.82
2023-03-25T19:29:21.989Z,51.83
2023-03-25T19:31:50.283Z,51.85
2023-03-25T19:34:22.415Z,52.06
2023-03-25T19:36:53.298Z,52.07
2023-03-25T19:39:23.074Z,52.10
2023-03-25T19:41:53.054Z,52.30
2023-03-25T19:44:21.216Z,52.32
2023-03-25T19:46:49.974Z,52.51
2023-03-25T19:49:28.970Z,52.54
2023-03-25T19:52:01.543Z,52.66
2023-03-25T19:54:29.798Z,52.56
2023-03-25T19:56:57.974Z,52.64
2023-03-25T19:59:26.458Z,52.59
2023-03-25T20:01:54.603Z,52.78
2023-03-25T20:04:22.635Z,52.68
2023-03-25T20:06:50.761Z,52.69
2023-03-25T20:09:18.977Z,52.67
2023-03-25T20:11:47.938Z,52.66
2023-03-25T20:14:16.806Z,52.56
2023-03-25T20:16:45.005Z,52.59
2023-03-25T20:19:13.267Z,52.90
2023-03-25T20:21:41.763Z,52.83
2023-03-25T20:24:09.753Z,53.10
2023-03-25T20:26:37.912Z,53.08
2023-03-25T20:29:06.057Z,53.27
2023-03-25T20:31:34.358Z,53.37
2023-03-25T20:34:02.575Z,53.35
2023-03-25T20:36:31.176Z,53.32
2023-03-25T20:39:00.870Z,53.48
2023-03-25T20:41:29.012Z,53.62
2023-03-25T20:43:57.227Z,53.58
2023-03-25T20:46:28.725Z,53.71
2023-03-25T20:48:58.299Z,53.58
2023-03-25T20:51:26.448Z,53.24
2023-03-25T20:53:55.051Z,53.12
2023-03-25T20:56:23.139Z,53.05
2023-03-25T20:58:51.401Z,53.03
2023-03-25T21:01:21.413Z,52.64
2023-03-25T21:03:52.199Z,52.42
2023-03-25T21:06:24.853Z,52.27
2023-03-25T21:08:55.981Z,52.30
2023-03-25T21:11:24.580Z,51.98
2023-03-25T21:13:52.843Z,51.85
2023-03-25T21:16:21.349Z,51.81
2023-03-25T21:18:50.401Z,51.72
2023-03-25T21:21:19.934Z,51.58
2023-03-25T21:23:49.503Z,51.51
2023-03-25T21:26:17.782Z,51.54
2023-03-25T21:28:46.112Z,51.47
2023-03-25T21:31:19.620Z,51.44
2023-03-25T21:33:51.340Z,51.35
2023-03-25T21:36:24.445Z,51.11
2023-03-25T21:39:04.636Z,51.07
2023-03-25T21:41:32.816Z,51.05
2023-03-25T21:44:00.987Z,51.06
2023-03-25T21:46:29.222Z,50.84
2023-03-25T21:49:01.344Z,50.73
2023-03-25T21:51:30.989Z,50.89
2023-03-25T21:54:00.596Z,50.95
2023-03-25T21:56:31.508Z,50.86
2023-03-25T21:59:02.090Z,50.72
2023-03-25T22:01:30.925Z,50.60
2023-03-25T22:04:01.260Z,50.49
2023-03-25T22:06:32.056Z,50.48
2023-03-25T22:09:05.512Z,50.36
2023-03-25T22:11:37.855Z,50.44
2023-03-25T22:14:07.230Z,50.30
2023-03-25T22:16:36.651Z,50.15
2023-03-25T22:19:05.779Z,50.05
2023-03-25T22:21:37.574Z,50.23
2023-03-25T22:24:11.848Z,50.27
2023-03-25T22:26:43.410Z,50.27
2023-03-25T22:29:13.729Z,50.04
2023-03-25T22:31:43.145Z,50.14
2023-03-25T22:34:15.673Z,49.88
2023-03-25T22:36:50.451Z,49.92
2023-03-25T22:39:20.788Z,49.67
2023-03-25T22:41:49.114Z,49.90
2023-03-25T22:44:18.235Z,50.06
2023-03-25T22:46:47.587Z,49.96
2023-03-25T22:49:16.679Z,49.93
2023-03-25T22:51:44.900Z,50.09
2023-03-25T22:54:13.199Z,49.89
2023-03-25T22:56:43.778Z,49.91
2023-03-25T22:59:14.192Z,50.02
2023-03-25T23:01:43.091Z,49.86
2023-03-25T23:04:11.569Z,50.09
2023-03-25T23:06:41.981Z,50.13
2023-03-25T23:09:10.991Z,50.43
2023-03-25T23:11:39.224Z,50.72
2023-03-25T23:14:12.668Z,51.29
2023-03-25T23:16:42.082Z,51.54
2023-03-25T23:19:10.470Z,51.71
2023-03-25T23:21:40.675Z,51.91
2023-03-25T23:24:21.251Z,52.14
2023-03-25T23:26:49.916Z,52.68
2023-03-25T23:29:17.968Z,52.85
2023-03-25T23:31:46.030Z,53.02
2023-03-25T23:34:16.803Z,53.24
2023-03-25T23:36:46.802Z,53.31
2023-03-25T23:39:22.846Z,53.64
2023-03-25T23:41:51.684Z,53.80
2023-03-25T23:44:20.417Z,53.88
2023-03-25T23:46:51.284Z,54.06
2023-03-25T23:49:20.477Z,54.49
2023-03-25T23:52:11.695Z,54.67
2023-03-25T23:54:40.821Z,54.91
2023-03-25T23:57:09.198Z,54.97
2023-03-25T23:59:41.702Z,55.20
